sensor_id;sensor_type;location;lat;lon;timestamp;pressure;altitude;pressure_sealevel;temperature
15607;BMP180;7865;50.918;4.510;2023-07-02T00:01:49;100317.00;;;15.80
15607;BMP180;7865;50.918;4.510;2023-07-02T00:06:51;100318.00;;;15.80
15607;BMP180;7865;50.918;4.510;2023-07-02T00:11:52;100331.00;;;15.80
15607;BMP180;7865;50.918;4.510;2023-07-02T00:16:53;100335.00;;;15.80
15607;BMP180;7865;50.918;4.510;2023-07-02T00:21:55;100324.00;;;15.80
15607;BMP180;7865;50.918;4.510;2023-07-02T00:26:56;100324.00;;;15.80
15607;BMP180;7865;50.918;4.510;2023-07-02T00:31:57;100334.00;;;15.80
15607;BMP180;7865;50.918;4.510;2023-07-02T00:36:59;100325.00;;;15.70
15607;BMP180;7865;50.918;4.510;2023-07-02T00:42:03;100336.00;;;15.70
15607;BMP180;7865;50.918;4.510;2023-07-02T00:47:05;100335.00;;;15.80
15607;BMP180;7865;50.918;4.510;2023-07-02T00:52:07;100333.00;;;15.80
15607;BMP180;7865;50.918;4.510;2023-07-02T00:57:09;100333.00;;;15.80
15607;BMP180;7865;50.918;4.510;2023-07-02T01:02:10;100336.00;;;15.80
15607;BMP180;7865;50.918;4.510;2023-07-02T01:07:11;100335.00;;;15.80
15607;BMP180;7865;50.918;4.510;2023-07-02T01:12:13;100344.00;;;15.80
15607;BMP180;7865;50.918;4.510;2023-07-02T01:17:17;100350.00;;;15.80
15607;BMP180;7865;50.918;4.510;2023-07-02T01:22:26;100351.00;;;15.80
15607;BMP180;7865;50.918;4.510;2023-07-02T01:27:29;100344.00;;;15.80
15607;BMP180;7865;50.918;4.510;2023-07-02T01:32:30;100353.00;;;15.80
15607;BMP180;7865;50.918;4.510;2023-07-02T01:37:31;100355.00;;;15.80
15607;BMP180;7865;50.918;4.510;2023-07-02T01:42:38;100358.00;;;15.80
15607;BMP180;7865;50.918;4.510;2023-07-02T01:47:40;100358.00;;;15.80
15607;BMP180;7865;50.918;4.510;2023-07-02T01:52:44;100360.00;;;15.80
15607;BMP180;7865;50.918;4.510;2023-07-02T01:57:45;100358.00;;;15.80
15607;BMP180;7865;50.918;4.510;2023-07-02T02:02:46;100365.00;;;15.80
15607;BMP180;7865;50.918;4.510;2023-07-02T02:07:48;100364.00;;;15.80
15607;BMP180;7865;50.918;4.510;2023-07-02T02:12:49;100369.00;;;15.80
15607;BMP180;7865;50.918;4.510;2023-07-02T02:17:50;100373.00;;;15.80
15607;BMP180;7865;50.918;4.510;2023-07-02T02:22:52;100381.00;;;15.80
15607;BMP180;7865;50.918;4.510;2023-07-02T02:27:53;100376.00;;;15.80
15607;BMP180;7865;50.918;4.510;2023-07-02T02:32:55;100375.00;;;15.70
15607;BMP180;7865;50.918;4.510;2023-07-02T02:37:57;100389.00;;;15.70
15607;BMP180;7865;50.918;4.510;2023-07-02T02:42:58;100381.00;;;15.60
15607;BMP180;7865;50.918;4.510;2023-07-02T02:48:00;100384.00;;;15.60
15607;BMP180;7865;50.918;4.510;2023-07-02T02:53:01;100391.00;;;15.50
15607;BMP180;7865;50.918;4.510;2023-07-02T02:58:03;100402.00;;;15.50
15607;BMP180;7865;50.918;4.510;2023-07-02T03:03:04;100399.00;;;15.40
15607;BMP180;7865;50.918;4.510;2023-07-02T03:08:07;100401.00;;;15.30
15607;BMP180;7865;50.918;4.510;2023-07-02T03:13:08;100413.00;;;15.20
15607;BMP180;7865;50.918;4.510;2023-07-02T03:18:10;100414.00;;;15.20
15607;BMP180;7865;50.918;4.510;2023-07-02T03:23:11;100413.00;;;15.20
15607;BMP180;7865;50.918;4.510;2023-07-02T03:28:12;100418.00;;;15.20
15607;BMP180;7865;50.918;4.510;2023-07-02T03:33:14;100422.00;;;15.10
15607;BMP180;7865;50.918;4.510;2023-07-02T03:38:15;100428.00;;;15.00
15607;BMP180;7865;50.918;4.510;2023-07-02T03:43:16;100426.00;;;15.00
15607;BMP180;7865;50.918;4.510;2023-07-02T03:48:18;100430.00;;;14.90
15607;BMP180;7865;50.918;4.510;2023-07-02T03:53:19;100435.00;;;14.90
15607;BMP180;7865;50.918;4.510;2023-07-02T03:58:20;100436.00;;;14.90
15607;BMP180;7865;50.918;4.510;2023-07-02T04:03:22;100440.00;;;15.00
15607;BMP180;7865;50.918;4.510;2023-07-02T04:08:23;100450.00;;;15.00
15607;BMP180;7865;50.918;4.510;2023-07-02T04:13:29;100448.00;;;15.20
15607;BMP180;7865;50.918;4.510;2023-07-02T04:18:30;100451.00;;;15.20
15607;BMP180;7865;50.918;4.510;2023-07-02T04:23:31;100455.00;;;15.30
15607;BMP180;7865;50.918;4.510;2023-07-02T04:28:33;100457.00;;;15.30
15607;BMP180;7865;50.918;4.510;2023-07-02T04:33:34;100463.00;;;15.40
15607;BMP180;7865;50.918;4.510;2023-07-02T04:38:36;100474.00;;;15.50
15607;BMP180;7865;50.918;4.510;2023-07-02T04:43:40;100477.00;;;15.80
15607;BMP180;7865;50.918;4.510;2023-07-02T04:48:41;100477.00;;;15.90
15607;BMP180;7865;50.918;4.510;2023-07-02T04:53:43;100480.00;;;16.00
15607;BMP180;7865;50.918;4.510;2023-07-02T04:58:44;100482.00;;;16.10
15607;BMP180;7865;50.918;4.510;2023-07-02T05:03:45;100484.00;;;16.20
15607;BMP180;7865;50.918;4.510;2023-07-02T05:08:47;100483.00;;;16.30
15607;BMP180;7865;50.918;4.510;2023-07-02T05:13:48;100489.00;;;16.50
15607;BMP180;7865;50.918;4.510;2023-07-02T05:18:49;100493.00;;;16.70
15607;BMP180;7865;50.918;4.510;2023-07-02T05:23:51;100498.00;;;16.90
15607;BMP180;7865;50.918;4.510;2023-07-02T05:28:52;100499.00;;;17.10
15607;BMP180;7865;50.918;4.510;2023-07-02T05:33:54;100504.00;;;17.20
15607;BMP180;7865;50.918;4.510;2023-07-02T05:38:55;100505.00;;;17.50
15607;BMP180;7865;50.918;4.510;2023-07-02T05:43:57;100507.00;;;18.00
15607;BMP180;7865;50.918;4.510;2023-07-02T05:48:59;100512.00;;;18.20
15607;BMP180;7865;50.918;4.510;2023-07-02T05:54:01;100523.00;;;18.20
15607;BMP180;7865;50.918;4.510;2023-07-02T05:59:02;100523.00;;;18.70
15607;BMP180;7865;50.918;4.510;2023-07-02T06:04:04;100518.00;;;19.20
15607;BMP180;7865;50.918;4.510;2023-07-02T06:09:05;100518.00;;;19.70
15607;BMP180;7865;50.918;4.510;2023-07-02T06:14:07;100530.00;;;20.00
15607;BMP180;7865;50.918;4.510;2023-07-02T06:19:08;100526.00;;;19.80
15607;BMP180;7865;50.918;4.510;2023-07-02T06:24:09;100540.00;;;20.60
15607;BMP180;7865;50.918;4.510;2023-07-02T06:29:10;100539.00;;;20.50
15607;BMP180;7865;50.918;4.510;2023-07-02T06:34:12;100548.00;;;20.10
15607;BMP180;7865;50.918;4.510;2023-07-02T06:39:13;100554.00;;;19.80
15607;BMP180;7865;50.918;4.510;2023-07-02T06:44:15;100561.00;;;19.90
15607;BMP180;7865;50.918;4.510;2023-07-02T06:49:16;100560.00;;;20.30
15607;BMP180;7865;50.918;4.510;2023-07-02T06:54:18;100566.00;;;20.50
15607;BMP180;7865;50.918;4.510;2023-07-02T06:59:22;100570.00;;;20.60
15607;BMP180;7865;50.918;4.510;2023-07-02T07:04:24;100593.00;;;20.70
15607;BMP180;7865;50.918;4.510;2023-07-02T07:09:25;100589.00;;;20.70
15607;BMP180;7865;50.918;4.510;2023-07-02T07:14:26;100589.00;;;20.70
15607;BMP180;7865;50.918;4.510;2023-07-02T07:19:28;100593.00;;;20.80
15607;BMP180;7865;50.918;4.510;2023-07-02T07:24:29;100596.00;;;20.70
15607;BMP180;7865;50.918;4.510;2023-07-02T07:29:30;100591.00;;;20.70
15607;BMP180;7865;50.918;4.510;2023-07-02T07:34:32;100604.00;;;20.60
15607;BMP180;7865;50.918;4.510;2023-07-02T07:39:33;100600.00;;;21.10
15607;BMP180;7865;50.918;4.510;2023-07-02T07:44:34;100610.00;;;21.10
15607;BMP180;7865;50.918;4.510;2023-07-02T07:49:36;100609.00;;;20.90
15607;BMP180;7865;50.918;4.510;2023-07-02T07:54:37;100595.00;;;21.10
15607;BMP180;7865;50.918;4.510;2023-07-02T07:59:39;100602.00;;;21.50
15607;BMP180;7865;50.918;4.510;2023-07-02T08:04:40;100609.00;;;21.50
15607;BMP180;7865;50.918;4.510;2023-07-02T08:09:41;100598.00;;;21.60
15607;BMP180;7865;50.918;4.510;2023-07-02T08:14:43;100599.00;;;21.80
15607;BMP180;7865;50.918;4.510;2023-07-02T08:19:44;100591.00;;;22.10
15607;BMP180;7865;50.918;4.510;2023-07-02T08:24:45;100604.00;;;22.80
15607;BMP180;7865;50.918;4.510;2023-07-02T08:29:50;100608.00;;;23.00
15607;BMP180;7865;50.918;4.510;2023-07-02T08:34:52;100613.00;;;22.80
15607;BMP180;7865;50.918;4.510;2023-07-02T08:39:53;100605.00;;;22.70
15607;BMP180;7865;50.918;4.510;2023-07-02T08:44:55;100614.00;;;23.80
15607;BMP180;7865;50.918;4.510;2023-07-02T08:49:58;100604.00;;;24.30
15607;BMP180;7865;50.918;4.510;2023-07-02T08:54:59;100615.00;;;26.20
15607;BMP180;7865;50.918;4.510;2023-07-02T09:00:12;100620.00;;;24.90
15607;BMP180;7865;50.918;4.510;2023-07-02T09:05:14;100620.00;;;24.80
15607;BMP180;7865;50.918;4.510;2023-07-02T09:10:29;100608.00;;;24.30
15607;BMP180;7865;50.918;4.510;2023-07-02T09:15:38;100620.00;;;22.70
15607;BMP180;7865;50.918;4.510;2023-07-02T09:20:40;100625.00;;;22.80
15607;BMP180;7865;50.918;4.510;2023-07-02T09:25:41;100624.00;;;21.70
15607;BMP180;7865;50.918;4.510;2023-07-02T09:30:56;100624.00;;;21.40
15607;BMP180;7865;50.918;4.510;2023-07-02T09:35:58;100627.00;;;22.40
15607;BMP180;7865;50.918;4.510;2023-07-02T09:40:59;100621.00;;;22.90
15607;BMP180;7865;50.918;4.510;2023-07-02T09:46:01;100607.00;;;25.10
15607;BMP180;7865;50.918;4.510;2023-07-02T09:51:03;100626.00;;;26.00
15607;BMP180;7865;50.918;4.510;2023-07-02T09:56:07;100624.00;;;25.30
15607;BMP180;7865;50.918;4.510;2023-07-02T10:01:09;100624.00;;;24.00
15607;BMP180;7865;50.918;4.510;2023-07-02T10:06:10;100629.00;;;22.90
15607;BMP180;7865;50.918;4.510;2023-07-02T10:11:13;100635.00;;;22.40
15607;BMP180;7865;50.918;4.510;2023-07-02T10:16:14;100642.00;;;22.90
15607;BMP180;7865;50.918;4.510;2023-07-02T10:21:16;100620.00;;;23.70
15607;BMP180;7865;50.918;4.510;2023-07-02T10:26:19;100621.00;;;26.70
15607;BMP180;7865;50.918;4.510;2023-07-02T10:31:21;100631.00;;;26.90
15607;BMP180;7865;50.918;4.510;2023-07-02T10:36:24;100632.00;;;25.00
15607;BMP180;7865;50.918;4.510;2023-07-02T10:41:28;100632.00;;;24.50
15607;BMP180;7865;50.918;4.510;2023-07-02T10:46:29;100636.00;;;24.80
15607;BMP180;7865;50.918;4.510;2023-07-02T10:51:31;100631.00;;;24.10
15607;BMP180;7865;50.918;4.510;2023-07-02T10:56:32;100635.00;;;24.40
15607;BMP180;7865;50.918;4.510;2023-07-02T11:01:33;100636.00;;;24.30
15607;BMP180;7865;50.918;4.510;2023-07-02T11:06:35;100640.00;;;24.00
15607;BMP180;7865;50.918;4.510;2023-07-02T11:11:36;100625.00;;;26.50
15607;BMP180;7865;50.918;4.510;2023-07-02T11:16:38;100629.00;;;26.90
15607;BMP180;7865;50.918;4.510;2023-07-02T11:21:50;100635.00;;;26.50
15607;BMP180;7865;50.918;4.510;2023-07-02T11:26:52;100635.00;;;26.10
15607;BMP180;7865;50.918;4.510;2023-07-02T11:31:53;100636.00;;;26.70
15607;BMP180;7865;50.918;4.510;2023-07-02T11:36:55;100623.00;;;26.00
15607;BMP180;7865;50.918;4.510;2023-07-02T11:41:56;100631.00;;;24.80
15607;BMP180;7865;50.918;4.510;2023-07-02T11:46:58;100622.00;;;26.10
15607;BMP180;7865;50.918;4.510;2023-07-02T11:51:59;100615.00;;;27.40
15607;BMP180;7865;50.918;4.510;2023-07-02T11:57:00;100626.00;;;27.70
15607;BMP180;7865;50.918;4.510;2023-07-02T12:02:02;100617.00;;;25.90
15607;BMP180;7865;50.918;4.510;2023-07-02T12:07:03;100635.00;;;24.40
15607;BMP180;7865;50.918;4.510;2023-07-02T12:12:05;100631.00;;;24.60
15607;BMP180;7865;50.918;4.510;2023-07-02T12:17:07;100619.00;;;25.30
15607;BMP180;7865;50.918;4.510;2023-07-02T12:22:08;100624.00;;;27.20
15607;BMP180;7865;50.918;4.510;2023-07-02T12:27:09;100618.00;;;27.70
15607;BMP180;7865;50.918;4.510;2023-07-02T12:32:10;100625.00;;;26.20
15607;BMP180;7865;50.918;4.510;2023-07-02T12:37:12;100624.00;;;25.70
15607;BMP180;7865;50.918;4.510;2023-07-02T12:42:18;100626.00;;;26.20
15607;BMP180;7865;50.918;4.510;2023-07-02T12:47:19;100625.00;;;26.00
15607;BMP180;7865;50.918;4.510;2023-07-02T12:52:21;100618.00;;;26.10
15607;BMP180;7865;50.918;4.510;2023-07-02T12:57:23;100625.00;;;25.20
15607;BMP180;7865;50.918;4.510;2023-07-02T13:02:24;100632.00;;;25.80
15607;BMP180;7865;50.918;4.510;2023-07-02T13:07:25;100616.00;;;26.70
15607;BMP180;7865;50.918;4.510;2023-07-02T13:12:27;100616.00;;;27.80
15607;BMP180;7865;50.918;4.510;2023-07-02T13:17:28;100609.00;;;28.80
15607;BMP180;7865;50.918;4.510;2023-07-02T13:22:29;100614.00;;;28.30
15607;BMP180;7865;50.918;4.510;2023-07-02T13:27:31;100610.00;;;28.90
15607;BMP180;7865;50.918;4.510;2023-07-02T13:32:32;100616.00;;;29.00
15607;BMP180;7865;50.918;4.510;2023-07-02T13:37:33;100604.00;;;29.80
15607;BMP180;7865;50.918;4.510;2023-07-02T13:42:35;100619.00;;;28.90
15607;BMP180;7865;50.918;4.510;2023-07-02T13:47:37;100612.00;;;27.90
15607;BMP180;7865;50.918;4.510;2023-07-02T13:52:38;100615.00;;;28.40
15607;BMP180;7865;50.918;4.510;2023-07-02T13:57:40;100614.00;;;27.70
15607;BMP180;7865;50.918;4.510;2023-07-02T14:02:41;100603.00;;;27.30
15607;BMP180;7865;50.918;4.510;2023-07-02T14:07:42;100602.00;;;28.70
15607;BMP180;7865;50.918;4.510;2023-07-02T14:12:44;100603.00;;;28.70
15607;BMP180;7865;50.918;4.510;2023-07-02T14:17:45;100606.00;;;27.20
15607;BMP180;7865;50.918;4.510;2023-07-02T14:22:47;100592.00;;;26.50
15607;BMP180;7865;50.918;4.510;2023-07-02T14:27:50;100597.00;;;26.00
15607;BMP180;7865;50.918;4.510;2023-07-02T14:32:51;100588.00;;;26.50
15607;BMP180;7865;50.918;4.510;2023-07-02T14:37:52;100573.00;;;27.00
15607;BMP180;7865;50.918;4.510;2023-07-02T14:42:54;100568.00;;;26.60
15607;BMP180;7865;50.918;4.510;2023-07-02T14:47:55;100570.00;;;26.20
15607;BMP180;7865;50.918;4.510;2023-07-02T14:53:00;100593.00;;;25.60
15607;BMP180;7865;50.918;4.510;2023-07-02T14:58:02;100588.00;;;25.30
15607;BMP180;7865;50.918;4.510;2023-07-02T15:03:03;100580.00;;;25.80
15607;BMP180;7865;50.918;4.510;2023-07-02T15:08:06;100576.00;;;25.60
15607;BMP180;7865;50.918;4.510;2023-07-02T15:13:09;100553.00;;;26.10
15607;BMP180;7865;50.918;4.510;2023-07-02T15:18:10;100575.00;;;26.00
15607;BMP180;7865;50.918;4.510;2023-07-02T15:23:12;100567.00;;;25.80
15607;BMP180;7865;50.918;4.510;2023-07-02T15:28:14;100572.00;;;26.00
15607;BMP180;7865;50.918;4.510;2023-07-02T15:33:16;100565.00;;;26.50
15607;BMP180;7865;50.918;4.510;2023-07-02T15:38:18;100588.00;;;26.00
15607;BMP180;7865;50.918;4.510;2023-07-02T15:43:19;100576.00;;;25.40
15607;BMP180;7865;50.918;4.510;2023-07-02T15:48:21;100575.00;;;25.20
15607;BMP180;7865;50.918;4.510;2023-07-02T15:53:23;100569.00;;;25.50
15607;BMP180;7865;50.918;4.510;2023-07-02T15:58:28;100566.00;;;25.10
15607;BMP180;7865;50.918;4.510;2023-07-02T16:03:30;100570.00;;;25.00
15607;BMP180;7865;50.918;4.510;2023-07-02T16:08:31;100571.00;;;25.10
15607;BMP180;7865;50.918;4.510;2023-07-02T16:13:33;100561.00;;;25.60
15607;BMP180;7865;50.918;4.510;2023-07-02T16:18:34;100567.00;;;25.10
15607;BMP180;7865;50.918;4.510;2023-07-02T16:23:36;100575.00;;;24.80
15607;BMP180;7865;50.918;4.510;2023-07-02T16:28:37;100586.00;;;24.30
15607;BMP180;7865;50.918;4.510;2023-07-02T16:33:39;100573.00;;;24.00
15607;BMP180;7865;50.918;4.510;2023-07-02T16:38:40;100573.00;;;24.40
15607;BMP180;7865;50.918;4.510;2023-07-02T16:43:42;100583.00;;;24.00
15607;BMP180;7865;50.918;4.510;2023-07-02T16:48:43;100582.00;;;24.10
15607;BMP180;7865;50.918;4.510;2023-07-02T16:53:44;100579.00;;;24.30
15607;BMP180;7865;50.918;4.510;2023-07-02T16:58:46;100576.00;;;23.90
15607;BMP180;7865;50.918;4.510;2023-07-02T17:03:47;100578.00;;;23.60
15607;BMP180;7865;50.918;4.510;2023-07-02T17:09:23;100576.00;;;23.30
15607;BMP180;7865;50.918;4.510;2023-07-02T17:14:26;100589.00;;;23.50
15607;BMP180;7865;50.918;4.510;2023-07-02T17:19:36;100576.00;;;23.30
15607;BMP180;7865;50.918;4.510;2023-07-02T17:24:40;100586.00;;;23.20
15607;BMP180;7865;50.918;4.510;2023-07-02T17:29:42;100579.00;;;23.30
15607;BMP180;7865;50.918;4.510;2023-07-02T17:34:44;100574.00;;;23.10
15607;BMP180;7865;50.918;4.510;2023-07-02T17:39:46;100592.00;;;22.70
15607;BMP180;7865;50.918;4.510;2023-07-02T17:44:48;100581.00;;;22.80
15607;BMP180;7865;50.918;4.510;2023-07-02T17:49:50;100592.00;;;22.50
15607;BMP180;7865;50.918;4.510;2023-07-02T17:54:51;100586.00;;;22.30
15607;BMP180;7865;50.918;4.510;2023-07-02T17:59:56;100583.00;;;22.40
15607;BMP180;7865;50.918;4.510;2023-07-02T18:04:57;100571.00;;;22.40
15607;BMP180;7865;50.918;4.510;2023-07-02T18:09:59;100580.00;;;22.30
15607;BMP180;7865;50.918;4.510;2023-07-02T18:15:00;100579.00;;;21.80
15607;BMP180;7865;50.918;4.510;2023-07-02T18:20:02;100594.00;;;21.50
15607;BMP180;7865;50.918;4.510;2023-07-02T18:25:05;100591.00;;;21.20
15607;BMP180;7865;50.918;4.510;2023-07-02T18:30:07;100595.00;;;21.00
15607;BMP180;7865;50.918;4.510;2023-07-02T18:35:08;100604.00;;;20.60
15607;BMP180;7865;50.918;4.510;2023-07-02T18:40:10;100615.00;;;20.30
15607;BMP180;7865;50.918;4.510;2023-07-02T18:45:11;100625.00;;;20.00
15607;BMP180;7865;50.918;4.510;2023-07-02T18:50:13;100618.00;;;19.70
15607;BMP180;7865;50.918;4.510;2023-07-02T18:55:15;100616.00;;;19.40
15607;BMP180;7865;50.918;4.510;2023-07-02T19:00:16;100629.00;;;19.20
15607;BMP180;7865;50.918;4.510;2023-07-02T19:05:18;100611.00;;;19.30
15607;BMP180;7865;50.918;4.510;2023-07-02T19:10:19;100619.00;;;19.20
15607;BMP180;7865;50.918;4.510;2023-07-02T19:15:21;100615.00;;;18.90
15607;BMP180;7865;50.918;4.510;2023-07-02T19:20:22;100612.00;;;18.80
15607;BMP180;7865;50.918;4.510;2023-07-02T19:25:23;100611.00;;;18.60
15607;BMP180;7865;50.918;4.510;2023-07-02T19:30:25;100620.00;;;18.40
15607;BMP180;7865;50.918;4.510;2023-07-02T19:35:29;100616.00;;;18.30
15607;BMP180;7865;50.918;4.510;2023-07-02T19:40:31;100625.00;;;18.20
15607;BMP180;7865;50.918;4.510;2023-07-02T19:45:35;100624.00;;;18.10
15607;BMP180;7865;50.918;4.510;2023-07-02T19:50:37;100631.00;;;17.90
15607;BMP180;7865;50.918;4.510;2023-07-02T19:55:38;100629.00;;;17.70
15607;BMP180;7865;50.918;4.510;2023-07-02T20:00:41;100637.00;;;17.50
15607;BMP180;7865;50.918;4.510;2023-07-02T20:05:42;100642.00;;;17.30
15607;BMP180;7865;50.918;4.510;2023-07-02T20:10:44;100649.00;;;17.20
15607;BMP180;7865;50.918;4.510;2023-07-02T20:15:47;100651.00;;;17.10
15607;BMP180;7865;50.918;4.510;2023-07-02T20:20:49;100652.00;;;17.00
15607;BMP180;7865;50.918;4.510;2023-07-02T20:25:54;100655.00;;;16.90
15607;BMP180;7865;50.918;4.510;2023-07-02T20:30:55;100646.00;;;16.90
15607;BMP180;7865;50.918;4.510;2023-07-02T20:35:58;100647.00;;;16.90
15607;BMP180;7865;50.918;4.510;2023-07-02T20:40:59;100642.00;;;16.80
15607;BMP180;7865;50.918;4.510;2023-07-02T20:46:03;100639.00;;;16.80
15607;BMP180;7865;50.918;4.510;2023-07-02T20:51:05;100646.00;;;16.80
15607;BMP180;7865;50.918;4.510;2023-07-02T20:56:06;100640.00;;;16.70
15607;BMP180;7865;50.918;4.510;2023-07-02T21:01:09;100649.00;;;16.50
15607;BMP180;7865;50.918;4.510;2023-07-02T21:06:11;100655.00;;;16.40
15607;BMP180;7865;50.918;4.510;2023-07-02T21:11:12;100655.00;;;16.30
15607;BMP180;7865;50.918;4.510;2023-07-02T21:16:34;100655.00;;;16.30
15607;BMP180;7865;50.918;4.510;2023-07-02T21:21:35;100659.00;;;16.20
15607;BMP180;7865;50.918;4.510;2023-07-02T21:26:36;100657.00;;;16.20
15607;BMP180;7865;50.918;4.510;2023-07-02T21:31:38;100667.00;;;16.10
15607;BMP180;7865;50.918;4.510;2023-07-02T21:36:39;100663.00;;;16.00
15607;BMP180;7865;50.918;4.510;2023-07-02T21:41:40;100661.00;;;15.90
15607;BMP180;7865;50.918;4.510;2023-07-02T21:46:42;100661.00;;;15.80
15607;BMP180;7865;50.918;4.510;2023-07-02T21:51:43;100669.00;;;15.80
15607;BMP180;7865;50.918;4.510;2023-07-02T21:56:44;100675.00;;;15.70
15607;BMP180;7865;50.918;4.510;2023-07-02T22:01:45;100666.00;;;15.60
15607;BMP180;7865;50.918;4.510;2023-07-02T22:06:47;100674.00;;;15.50
15607;BMP180;7865;50.918;4.510;2023-07-02T22:11:48;100667.00;;;15.40
15607;BMP180;7865;50.918;4.510;2023-07-02T22:16:49;100662.00;;;15.50
15607;BMP180;7865;50.918;4.510;2023-07-02T22:21:51;100661.00;;;15.50
15607;BMP180;7865;50.918;4.510;2023-07-02T22:26:55;100667.00;;;15.60
15607;BMP180;7865;50.918;4.510;2023-07-02T22:31:56;100659.00;;;15.50
15607;BMP180;7865;50.918;4.510;2023-07-02T22:36:57;100664.00;;;15.50
15607;BMP180;7865;50.918;4.510;2023-07-02T22:41:59;100658.00;;;15.50
15607;BMP180;7865;50.918;4.510;2023-07-02T22:47:00;100647.00;;;15.40
15607;BMP180;7865;50.918;4.510;2023-07-02T22:52:01;100645.00;;;15.40
15607;BMP180;7865;50.918;4.510;2023-07-02T22:57:03;100639.00;;;15.40
15607;BMP180;7865;50.918;4.510;2023-07-02T23:02:05;100648.00;;;15.40
15607;BMP180;7865;50.918;4.510;2023-07-02T23:07:06;100642.00;;;15.30
15607;BMP180;7865;50.918;4.510;2023-07-02T23:12:08;100638.00;;;15.30
15607;BMP180;7865;50.918;4.510;2023-07-02T23:17:10;100630.00;;;15.30
15607;BMP180;7865;50.918;4.510;2023-07-02T23:22:14;100627.00;;;15.20
15607;BMP180;7865;50.918;4.510;2023-07-02T23:27:16;100631.00;;;15.20
15607;BMP180;7865;50.918;4.510;2023-07-02T23:32:19;100632.00;;;15.20
15607;BMP180;7865;50.918;4.510;2023-07-02T23:37:28;100618.00;;;15.30
15607;BMP180;7865;50.918;4.510;2023-07-02T23:42:29;100607.00;;;15.30
15607;BMP180;7865;50.918;4.510;2023-07-02T23:47:30;100603.00;;;15.20
15607;BMP180;7865;50.918;4.510;2023-07-02T23:52:32;100609.00;;;15.10
15607;BMP180;7865;50.918;4.510;2023-07-02T23:57:37;100608.00;;;15.10
